sensor_id;sensor_type;location;lat;lon;timestamp;P1;durP1;ratioP1;P2;durP2;ratioP2
54993;SDS011;40891;47.242;8.648;2023-08-31T00:02:00;3.95;;;2.35;;
54993;SDS011;40891;47.242;8.648;2023-08-31T00:04:25;5.68;;;1.90;;
54993;SDS011;40891;47.242;8.648;2023-08-31T00:06:51;4.75;;;2.20;;
54993;SDS011;40891;47.242;8.648;2023-08-31T00:09:16;3.72;;;2.22;;
54993;SDS011;40891;47.242;8.648;2023-08-31T00:11:41;4.05;;;2.08;;
54993;SDS011;40891;47.242;8.648;2023-08-31T00:14:07;2.97;;;1.77;;
54993;SDS011;40891;47.242;8.648;2023-08-31T00:16:32;2.90;;;1.85;;
54993;SDS011;40891;47.242;8.648;2023-08-31T00:18:58;2.70;;;2.15;;
54993;SDS011;40891;47.242;8.648;2023-08-31T00:21:24;3.03;;;2.20;;
54993;SDS011;40891;47.242;8.648;2023-08-31T00:23:49;2.20;;;2.00;;
54993;SDS011;40891;47.242;8.648;2023-08-31T00:26:15;4.53;;;2.28;;
54993;SDS011;40891;47.242;8.648;2023-08-31T00:28:40;2.97;;;2.28;;
54993;SDS011;40891;47.242;8.648;2023-08-31T00:31:10;6.45;;;2.15;;
54993;SDS011;40891;47.242;8.648;2023-08-31T00:33:39;3.30;;;2.03;;
54993;SDS011;40891;47.242;8.648;2023-08-31T00:36:04;4.32;;;2.00;;
54993;SDS011;40891;47.242;8.648;2023-08-31T00:38:30;3.55;;;2.25;;
54993;SDS011;40891;47.242;8.648;2023-08-31T00:40:56;3.17;;;1.70;;
54993;SDS011;40891;47.242;8.648;2023-08-31T00:43:21;2.90;;;1.80;;
54993;SDS011;40891;47.242;8.648;2023-08-31T00:45:51;5.65;;;1.90;;
54993;SDS011;40891;47.242;8.648;2023-08-31T00:48:21;3.67;;;2.33;;
54993;SDS011;40891;47.242;8.648;2023-08-31T00:50:47;2.83;;;1.98;;
54993;SDS011;40891;47.242;8.648;2023-08-31T00:53:13;4.00;;;1.90;;
54993;SDS011;40891;47.242;8.648;2023-08-31T00:55:40;5.28;;;1.98;;
54993;SDS011;40891;47.242;8.648;2023-08-31T00:58:06;3.85;;;2.33;;
54993;SDS011;40891;47.242;8.648;2023-08-31T01:01:19;2.67;;;1.98;;
54993;SDS011;40891;47.242;8.648;2023-08-31T01:13:44;2.40;;;1.90;;
54993;SDS011;40891;47.242;8.648;2023-08-31T01:16:16;3.33;;;2.10;;
54993;SDS011;40891;47.242;8.648;2023-08-31T01:18:44;3.15;;;2.35;;
54993;SDS011;40891;47.242;8.648;2023-08-31T01:21:20;4.50;;;2.22;;
54993;SDS011;40891;47.242;8.648;2023-08-31T01:26:21;3.85;;;2.15;;
54993;SDS011;40891;47.242;8.648;2023-08-31T01:28:47;5.60;;;2.08;;
54993;SDS011;40891;47.242;8.648;2023-08-31T01:31:13;3.97;;;2.20;;
54993;SDS011;40891;47.242;8.648;2023-08-31T01:33:40;5.00;;;2.10;;
54993;SDS011;40891;47.242;8.648;2023-08-31T01:36:07;2.70;;;2.10;;
54993;SDS011;40891;47.242;8.648;2023-08-31T01:38:38;2.75;;;2.30;;
54993;SDS011;40891;47.242;8.648;2023-08-31T01:41:09;3.90;;;2.30;;
54993;SDS011;40891;47.242;8.648;2023-08-31T01:43:38;3.05;;;2.28;;
54993;SDS011;40891;47.242;8.648;2023-08-31T01:46:06;2.38;;;2.00;;
54993;SDS011;40891;47.242;8.648;2023-08-31T01:48:37;3.08;;;2.10;;
54993;SDS011;40891;47.242;8.648;2023-08-31T01:51:03;3.95;;;2.25;;
54993;SDS011;40891;47.242;8.648;2023-08-31T01:53:28;4.60;;;1.92;;
54993;SDS011;40891;47.242;8.648;2023-08-31T01:55:54;3.15;;;2.10;;
54993;SDS011;40891;47.242;8.648;2023-08-31T01:58:19;4.28;;;2.08;;
54993;SDS011;40891;47.242;8.648;2023-08-31T02:00:44;4.80;;;2.28;;
54993;SDS011;40891;47.242;8.648;2023-08-31T02:03:09;5.80;;;2.58;;
54993;SDS011;40891;47.242;8.648;2023-08-31T02:05:36;3.50;;;2.60;;
54993;SDS011;40891;47.242;8.648;2023-08-31T02:08:01;4.20;;;2.30;;
54993;SDS011;40891;47.242;8.648;2023-08-31T02:10:26;3.50;;;2.08;;
54993;SDS011;40891;47.242;8.648;2023-08-31T02:12:52;2.75;;;2.33;;
54993;SDS011;40891;47.242;8.648;2023-08-31T02:15:17;6.20;;;2.38;;
54993;SDS011;40891;47.242;8.648;2023-08-31T02:17:42;7.22;;;2.47;;
54993;SDS011;40891;47.242;8.648;2023-08-31T02:20:08;7.28;;;2.17;;
54993;SDS011;40891;47.242;8.648;2023-08-31T02:22:34;4.57;;;2.38;;
54993;SDS011;40891;47.242;8.648;2023-08-31T02:25:00;2.75;;;2.47;;
54993;SDS011;40891;47.242;8.648;2023-08-31T02:27:26;3.03;;;2.47;;
54993;SDS011;40891;47.242;8.648;2023-08-31T02:29:51;3.00;;;2.03;;
54993;SDS011;40891;47.242;8.648;2023-08-31T02:32:16;5.10;;;2.53;;
54993;SDS011;40891;47.242;8.648;2023-08-31T02:34:42;3.28;;;2.65;;
54993;SDS011;40891;47.242;8.648;2023-08-31T02:37:07;8.27;;;2.60;;
54993;SDS011;40891;47.242;8.648;2023-08-31T02:39:32;3.00;;;2.20;;
54993;SDS011;40891;47.242;8.648;2023-08-31T02:41:57;2.70;;;2.00;;
54993;SDS011;40891;47.242;8.648;2023-08-31T02:44:23;4.22;;;2.45;;
54993;SDS011;40891;47.242;8.648;2023-08-31T02:46:48;9.65;;;2.13;;
54993;SDS011;40891;47.242;8.648;2023-08-31T02:49:13;3.47;;;2.25;;
54993;SDS011;40891;47.242;8.648;2023-08-31T02:51:39;9.52;;;2.33;;
54993;SDS011;40891;47.242;8.648;2023-08-31T02:54:04;6.88;;;2.30;;
54993;SDS011;40891;47.242;8.648;2023-08-31T02:56:29;2.47;;;2.20;;
54993;SDS011;40891;47.242;8.648;2023-08-31T02:58:55;5.05;;;2.30;;
54993;SDS011;40891;47.242;8.648;2023-08-31T03:01:20;5.68;;;2.97;;
54993;SDS011;40891;47.242;8.648;2023-08-31T03:03:47;6.45;;;2.55;;
54993;SDS011;40891;47.242;8.648;2023-08-31T03:06:12;4.15;;;2.78;;
54993;SDS011;40891;47.242;8.648;2023-08-31T03:08:38;6.88;;;3.05;;
54993;SDS011;40891;47.242;8.648;2023-08-31T03:11:04;3.28;;;2.63;;
54993;SDS011;40891;47.242;8.648;2023-08-31T03:13:30;4.28;;;2.78;;
54993;SDS011;40891;47.242;8.648;2023-08-31T03:15:56;2.65;;;2.45;;
54993;SDS011;40891;47.242;8.648;2023-08-31T03:18:21;2.90;;;2.60;;
54993;SDS011;40891;47.242;8.648;2023-08-31T03:20:47;4.38;;;2.53;;
54993;SDS011;40891;47.242;8.648;2023-08-31T03:23:12;4.05;;;2.40;;
54993;SDS011;40891;47.242;8.648;2023-08-31T03:25:38;4.15;;;2.70;;
54993;SDS011;40891;47.242;8.648;2023-08-31T03:28:03;3.25;;;2.60;;
54993;SDS011;40891;47.242;8.648;2023-08-31T03:30:28;3.03;;;2.58;;
54993;SDS011;40891;47.242;8.648;2023-08-31T03:32:54;3.17;;;2.60;;
54993;SDS011;40891;47.242;8.648;2023-08-31T03:35:19;3.85;;;2.80;;
54993;SDS011;40891;47.242;8.648;2023-08-31T03:37:49;3.50;;;2.38;;
54993;SDS011;40891;47.242;8.648;2023-08-31T03:40:14;7.70;;;2.90;;
54993;SDS011;40891;47.242;8.648;2023-08-31T03:42:39;3.47;;;2.70;;
54993;SDS011;40891;47.242;8.648;2023-08-31T03:45:05;2.95;;;2.70;;
54993;SDS011;40891;47.242;8.648;2023-08-31T03:47:31;3.10;;;2.80;;
54993;SDS011;40891;47.242;8.648;2023-08-31T03:49:56;6.22;;;3.03;;
54993;SDS011;40891;47.242;8.648;2023-08-31T03:52:21;5.75;;;3.17;;
54993;SDS011;40891;47.242;8.648;2023-08-31T03:54:48;4.53;;;3.03;;
54993;SDS011;40891;47.242;8.648;2023-08-31T03:57:13;5.80;;;3.00;;
54993;SDS011;40891;47.242;8.648;2023-08-31T03:59:38;4.88;;;3.03;;
54993;SDS011;40891;47.242;8.648;2023-08-31T04:02:03;5.85;;;2.80;;
54993;SDS011;40891;47.242;8.648;2023-08-31T04:04:29;3.83;;;2.92;;
54993;SDS011;40891;47.242;8.648;2023-08-31T04:06:54;3.17;;;2.67;;
54993;SDS011;40891;47.242;8.648;2023-08-31T04:09:19;4.53;;;2.78;;
54993;SDS011;40891;47.242;8.648;2023-08-31T04:11:45;4.90;;;2.90;;
54993;SDS011;40891;47.242;8.648;2023-08-31T04:14:10;4.43;;;2.88;;
54993;SDS011;40891;47.242;8.648;2023-08-31T04:16:35;7.63;;;2.70;;
54993;SDS011;40891;47.242;8.648;2023-08-31T04:19:01;4.03;;;2.63;;
54993;SDS011;40891;47.242;8.648;2023-08-31T04:21:26;4.53;;;3.00;;
54993;SDS011;40891;47.242;8.648;2023-08-31T04:23:51;4.97;;;2.53;;
54993;SDS011;40891;47.242;8.648;2023-08-31T04:26:16;6.03;;;3.13;;
54993;SDS011;40891;47.242;8.648;2023-08-31T04:28:42;7.25;;;2.95;;
54993;SDS011;40891;47.242;8.648;2023-08-31T04:31:08;3.35;;;2.70;;
54993;SDS011;40891;47.242;8.648;2023-08-31T04:33:34;4.25;;;2.83;;
54993;SDS011;40891;47.242;8.648;2023-08-31T04:35:59;5.75;;;3.10;;
54993;SDS011;40891;47.242;8.648;2023-08-31T04:38:25;3.65;;;2.90;;
54993;SDS011;40891;47.242;8.648;2023-08-31T04:40:50;3.13;;;2.30;;
54993;SDS011;40891;47.242;8.648;2023-08-31T04:43:15;3.92;;;2.60;;
54993;SDS011;40891;47.242;8.648;2023-08-31T04:45:40;4.72;;;2.83;;
54993;SDS011;40891;47.242;8.648;2023-08-31T04:48:06;4.47;;;2.90;;
54993;SDS011;40891;47.242;8.648;2023-08-31T04:50:31;4.50;;;2.58;;
54993;SDS011;40891;47.242;8.648;2023-08-31T04:52:56;4.05;;;2.75;;
54993;SDS011;40891;47.242;8.648;2023-08-31T04:55:23;5.38;;;2.92;;
54993;SDS011;40891;47.242;8.648;2023-08-31T04:57:48;3.88;;;2.67;;
54993;SDS011;40891;47.242;8.648;2023-08-31T05:00:14;6.15;;;3.20;;
54993;SDS011;40891;47.242;8.648;2023-08-31T05:02:39;6.05;;;2.75;;
54993;SDS011;40891;47.242;8.648;2023-08-31T05:05:05;4.03;;;2.50;;
54993;SDS011;40891;47.242;8.648;2023-08-31T05:07:30;3.85;;;2.40;;
54993;SDS011;40891;47.242;8.648;2023-08-31T05:09:56;3.67;;;2.50;;
54993;SDS011;40891;47.242;8.648;2023-08-31T05:12:21;3.90;;;2.40;;
54993;SDS011;40891;47.242;8.648;2023-08-31T05:14:46;4.50;;;2.10;;
54993;SDS011;40891;47.242;8.648;2023-08-31T05:17:11;4.47;;;1.83;;
54993;SDS011;40891;47.242;8.648;2023-08-31T05:19:37;2.55;;;2.00;;
54993;SDS011;40891;47.242;8.648;2023-08-31T05:22:02;3.25;;;2.03;;
54993;SDS011;40891;47.242;8.648;2023-08-31T05:24:27;5.18;;;2.13;;
54993;SDS011;40891;47.242;8.648;2023-08-31T05:26:53;2.83;;;1.85;;
54993;SDS011;40891;47.242;8.648;2023-08-31T05:29:18;4.53;;;2.15;;
54993;SDS011;40891;47.242;8.648;2023-08-31T05:31:43;5.80;;;2.28;;
54993;SDS011;40891;47.242;8.648;2023-08-31T05:34:15;2.10;;;1.80;;
54993;SDS011;40891;47.242;8.648;2023-08-31T05:36:41;3.92;;;2.20;;
54993;SDS011;40891;47.242;8.648;2023-08-31T05:39:06;3.22;;;2.25;;
54993;SDS011;40891;47.242;8.648;2023-08-31T05:41:31;2.83;;;1.90;;
54993;SDS011;40891;47.242;8.648;2023-08-31T05:43:57;6.30;;;2.33;;
54993;SDS011;40891;47.242;8.648;2023-08-31T05:46:22;3.45;;;2.33;;
54993;SDS011;40891;47.242;8.648;2023-08-31T05:48:47;3.47;;;2.42;;
54993;SDS011;40891;47.242;8.648;2023-08-31T05:51:13;3.63;;;2.30;;
54993;SDS011;40891;47.242;8.648;2023-08-31T05:53:38;3.13;;;2.22;;
54993;SDS011;40891;47.242;8.648;2023-08-31T05:56:03;4.57;;;2.47;;
54993;SDS011;40891;47.242;8.648;2023-08-31T05:58:35;3.65;;;2.70;;
54993;SDS011;40891;47.242;8.648;2023-08-31T06:01:02;4.07;;;2.58;;
54993;SDS011;40891;47.242;8.648;2023-08-31T06:03:28;3.42;;;2.60;;
54993;SDS011;40891;47.242;8.648;2023-08-31T06:05:54;6.65;;;2.80;;
54993;SDS011;40891;47.242;8.648;2023-08-31T06:08:20;8.43;;;2.20;;
54993;SDS011;40891;47.242;8.648;2023-08-31T06:10:45;4.10;;;2.63;;
54993;SDS011;40891;47.242;8.648;2023-08-31T06:13:11;4.07;;;2.72;;
54993;SDS011;40891;47.242;8.648;2023-08-31T06:15:36;4.03;;;2.78;;
54993;SDS011;40891;47.242;8.648;2023-08-31T06:18:01;3.90;;;2.80;;
54993;SDS011;40891;47.242;8.648;2023-08-31T06:20:27;6.75;;;2.72;;
54993;SDS011;40891;47.242;8.648;2023-08-31T06:22:52;5.70;;;2.50;;
54993;SDS011;40891;47.242;8.648;2023-08-31T06:25:18;5.50;;;2.50;;
54993;SDS011;40891;47.242;8.648;2023-08-31T06:27:44;5.47;;;2.50;;
54993;SDS011;40891;47.242;8.648;2023-08-31T06:30:09;4.00;;;2.50;;
54993;SDS011;40891;47.242;8.648;2023-08-31T06:32:41;4.15;;;3.00;;
54993;SDS011;40891;47.242;8.648;2023-08-31T06:35:10;4.22;;;2.50;;
54993;SDS011;40891;47.242;8.648;2023-08-31T06:37:39;4.28;;;2.72;;
54993;SDS011;40891;47.242;8.648;2023-08-31T06:40:08;3.72;;;2.72;;
54993;SDS011;40891;47.242;8.648;2023-08-31T06:42:37;6.60;;;3.03;;
54993;SDS011;40891;47.242;8.648;2023-08-31T06:45:04;6.60;;;3.13;;
54993;SDS011;40891;47.242;8.648;2023-08-31T06:47:30;5.03;;;3.13;;
54993;SDS011;40891;47.242;8.648;2023-08-31T06:49:56;7.28;;;3.05;;
54993;SDS011;40891;47.242;8.648;2023-08-31T06:52:22;5.05;;;2.90;;
54993;SDS011;40891;47.242;8.648;2023-08-31T06:54:48;4.07;;;2.80;;
54993;SDS011;40891;47.242;8.648;2023-08-31T06:57:14;5.40;;;3.35;;
54993;SDS011;40891;47.242;8.648;2023-08-31T06:59:39;5.72;;;3.03;;
54993;SDS011;40891;47.242;8.648;2023-08-31T07:02:05;6.90;;;3.03;;
54993;SDS011;40891;47.242;8.648;2023-08-31T07:04:30;7.85;;;3.10;;
54993;SDS011;40891;47.242;8.648;2023-08-31T07:06:56;3.20;;;2.58;;
54993;SDS011;40891;47.242;8.648;2023-08-31T07:09:21;3.70;;;2.90;;
54993;SDS011;40891;47.242;8.648;2023-08-31T07:11:46;3.80;;;3.10;;
54993;SDS011;40891;47.242;8.648;2023-08-31T07:14:11;4.28;;;3.25;;
54993;SDS011;40891;47.242;8.648;2023-08-31T07:16:37;5.65;;;3.22;;
54993;SDS011;40891;47.242;8.648;2023-08-31T07:19:02;4.20;;;2.80;;
54993;SDS011;40891;47.242;8.648;2023-08-31T07:21:27;7.15;;;3.30;;
54993;SDS011;40891;47.242;8.648;2023-08-31T07:23:53;5.28;;;3.38;;
54993;SDS011;40891;47.242;8.648;2023-08-31T07:26:19;6.25;;;3.33;;
54993;SDS011;40891;47.242;8.648;2023-08-31T07:28:44;4.88;;;3.15;;
54993;SDS011;40891;47.242;8.648;2023-08-31T07:31:09;5.30;;;3.25;;
54993;SDS011;40891;47.242;8.648;2023-08-31T07:33:35;5.05;;;3.03;;
54993;SDS011;40891;47.242;8.648;2023-08-31T07:36:01;4.78;;;3.13;;
54993;SDS011;40891;47.242;8.648;2023-08-31T07:38:28;5.18;;;3.30;;
54993;SDS011;40891;47.242;8.648;2023-08-31T07:40:55;3.75;;;3.00;;
54993;SDS011;40891;47.242;8.648;2023-08-31T07:43:20;3.95;;;3.15;;
54993;SDS011;40891;47.242;8.648;2023-08-31T07:45:45;6.00;;;3.25;;
54993;SDS011;40891;47.242;8.648;2023-08-31T07:48:10;3.78;;;2.78;;
54993;SDS011;40891;47.242;8.648;2023-08-31T07:50:36;4.00;;;2.80;;
54993;SDS011;40891;47.242;8.648;2023-08-31T07:53:01;6.65;;;3.25;;
54993;SDS011;40891;47.242;8.648;2023-08-31T07:55:26;3.58;;;2.95;;
54993;SDS011;40891;47.242;8.648;2023-08-31T07:57:52;4.50;;;2.88;;
54993;SDS011;40891;47.242;8.648;2023-08-31T08:00:17;7.22;;;3.20;;
54993;SDS011;40891;47.242;8.648;2023-08-31T08:02:44;4.15;;;3.25;;
54993;SDS011;40891;47.242;8.648;2023-08-31T08:05:11;5.68;;;3.20;;
54993;SDS011;40891;47.242;8.648;2023-08-31T08:07:36;7.40;;;3.17;;
54993;SDS011;40891;47.242;8.648;2023-08-31T08:10:01;5.97;;;3.15;;
54993;SDS011;40891;47.242;8.648;2023-08-31T08:12:27;4.55;;;2.78;;
54993;SDS011;40891;47.242;8.648;2023-08-31T08:15:02;3.50;;;2.72;;
54993;SDS011;40891;47.242;8.648;2023-08-31T08:17:27;4.63;;;3.08;;
54993;SDS011;40891;47.242;8.648;2023-08-31T08:19:52;4.60;;;3.25;;
54993;SDS011;40891;47.242;8.648;2023-08-31T08:22:18;8.45;;;3.17;;
54993;SDS011;40891;47.242;8.648;2023-08-31T08:24:43;13.68;;;3.83;;
54993;SDS011;40891;47.242;8.648;2023-08-31T08:27:08;19.90;;;3.40;;
54993;SDS011;40891;47.242;8.648;2023-08-31T08:29:34;7.35;;;3.50;;
54993;SDS011;40891;47.242;8.648;2023-08-31T08:31:59;4.60;;;3.00;;
54993;SDS011;40891;47.242;8.648;2023-08-31T08:34:25;6.53;;;2.70;;
54993;SDS011;40891;47.242;8.648;2023-08-31T08:36:51;5.30;;;2.83;;
54993;SDS011;40891;47.242;8.648;2023-08-31T08:39:17;3.80;;;3.00;;
54993;SDS011;40891;47.242;8.648;2023-08-31T08:41:42;5.78;;;2.78;;
54993;SDS011;40891;47.242;8.648;2023-08-31T08:44:09;7.07;;;3.00;;
54993;SDS011;40891;47.242;8.648;2023-08-31T08:46:35;6.97;;;3.03;;
54993;SDS011;40891;47.242;8.648;2023-08-31T08:49:02;8.57;;;3.13;;
54993;SDS011;40891;47.242;8.648;2023-08-31T08:51:29;6.70;;;3.70;;
54993;SDS011;40891;47.242;8.648;2023-08-31T08:53:55;17.13;;;3.05;;
54993;SDS011;40891;47.242;8.648;2023-08-31T08:56:21;5.88;;;2.55;;
54993;SDS011;40891;47.242;8.648;2023-08-31T08:58:46;5.43;;;2.80;;
54993;SDS011;40891;47.242;8.648;2023-08-31T09:01:12;5.70;;;2.47;;
54993;SDS011;40891;47.242;8.648;2023-08-31T09:03:37;6.60;;;3.15;;
54993;SDS011;40891;47.242;8.648;2023-08-31T09:06:02;4.57;;;2.50;;
54993;SDS011;40891;47.242;8.648;2023-08-31T09:08:32;4.07;;;2.47;;
54993;SDS011;40891;47.242;8.648;2023-08-31T09:10:58;4.30;;;2.42;;
54993;SDS011;40891;47.242;8.648;2023-08-31T09:13:27;4.18;;;2.83;;
54993;SDS011;40891;47.242;8.648;2023-08-31T09:15:54;5.63;;;2.47;;
54993;SDS011;40891;47.242;8.648;2023-08-31T09:18:22;3.92;;;2.30;;
54993;SDS011;40891;47.242;8.648;2023-08-31T09:20:51;5.35;;;2.50;;
54993;SDS011;40891;47.242;8.648;2023-08-31T09:23:17;4.05;;;2.67;;
54993;SDS011;40891;47.242;8.648;2023-08-31T09:25:43;5.22;;;2.90;;
54993;SDS011;40891;47.242;8.648;2023-08-31T09:28:11;3.75;;;2.58;;
54993;SDS011;40891;47.242;8.648;2023-08-31T09:30:37;4.10;;;2.30;;
54993;SDS011;40891;47.242;8.648;2023-08-31T09:33:05;3.65;;;2.60;;
54993;SDS011;40891;47.242;8.648;2023-08-31T09:35:31;4.50;;;2.47;;
54993;SDS011;40891;47.242;8.648;2023-08-31T09:37:57;3.42;;;2.40;;
54993;SDS011;40891;47.242;8.648;2023-08-31T09:40:22;5.28;;;2.60;;
54993;SDS011;40891;47.242;8.648;2023-08-31T09:42:49;3.03;;;2.20;;
54993;SDS011;40891;47.242;8.648;2023-08-31T09:45:16;4.57;;;2.47;;
54993;SDS011;40891;47.242;8.648;2023-08-31T09:47:43;5.40;;;2.47;;
54993;SDS011;40891;47.242;8.648;2023-08-31T09:50:10;5.47;;;2.38;;
54993;SDS011;40891;47.242;8.648;2023-08-31T09:52:36;5.60;;;2.30;;
54993;SDS011;40891;47.242;8.648;2023-08-31T09:55:03;5.70;;;2.95;;
54993;SDS011;40891;47.242;8.648;2023-08-31T09:57:29;4.85;;;2.38;;
54993;SDS011;40891;47.242;8.648;2023-08-31T09:59:56;5.00;;;2.60;;
54993;SDS011;40891;47.242;8.648;2023-08-31T10:02:23;3.35;;;2.40;;
54993;SDS011;40891;47.242;8.648;2023-08-31T10:04:50;5.03;;;2.67;;
54993;SDS011;40891;47.242;8.648;2023-08-31T10:07:17;2.58;;;2.22;;
54993;SDS011;40891;47.242;8.648;2023-08-31T10:09:43;3.42;;;2.55;;
54993;SDS011;40891;47.242;8.648;2023-08-31T10:12:09;3.63;;;2.45;;
54993;SDS011;40891;47.242;8.648;2023-08-31T10:14:35;3.17;;;2.30;;
54993;SDS011;40891;47.242;8.648;2023-08-31T10:17:00;4.55;;;2.53;;
54993;SDS011;40891;47.242;8.648;2023-08-31T10:19:26;3.40;;;2.67;;
54993;SDS011;40891;47.242;8.648;2023-08-31T10:21:51;5.32;;;2.45;;
54993;SDS011;40891;47.242;8.648;2023-08-31T10:24:17;5.88;;;2.47;;
54993;SDS011;40891;47.242;8.648;2023-08-31T10:26:43;3.70;;;2.10;;
54993;SDS011;40891;47.242;8.648;2023-08-31T10:29:25;4.20;;;2.30;;
54993;SDS011;40891;47.242;8.648;2023-08-31T10:31:51;3.33;;;2.55;;
54993;SDS011;40891;47.242;8.648;2023-08-31T10:34:17;6.00;;;2.60;;
54993;SDS011;40891;47.242;8.648;2023-08-31T10:37:00;4.15;;;2.35;;
54993;SDS011;40891;47.242;8.648;2023-08-31T10:39:28;5.00;;;2.20;;
54993;SDS011;40891;47.242;8.648;2023-08-31T10:42:02;3.97;;;2.40;;
54993;SDS011;40891;47.242;8.648;2023-08-31T10:44:30;3.78;;;2.00;;
54993;SDS011;40891;47.242;8.648;2023-08-31T10:46:59;4.47;;;2.15;;
54993;SDS011;40891;47.242;8.648;2023-08-31T10:49:25;3.78;;;2.17;;
54993;SDS011;40891;47.242;8.648;2023-08-31T10:51:57;4.15;;;2.10;;
54993;SDS011;40891;47.242;8.648;2023-08-31T10:54:39;3.28;;;1.90;;
54993;SDS011;40891;47.242;8.648;2023-08-31T10:57:05;3.22;;;2.10;;
54993;SDS011;40891;47.242;8.648;2023-08-31T10:59:49;3.13;;;1.90;;
54993;SDS011;40891;47.242;8.648;2023-08-31T11:05:12;6.00;;;1.92;;
54993;SDS011;40891;47.242;8.648;2023-08-31T11:07:45;2.63;;;1.92;;
54993;SDS011;40891;47.242;8.648;2023-08-31T11:10:19;4.53;;;2.03;;
54993;SDS011;40891;47.242;8.648;2023-08-31T11:12:47;3.72;;;2.20;;
54993;SDS011;40891;47.242;8.648;2023-08-31T11:15:17;5.28;;;2.10;;
54993;SDS011;40891;47.242;8.648;2023-08-31T11:17:43;3.22;;;1.85;;
54993;SDS011;40891;47.242;8.648;2023-08-31T11:20:12;3.97;;;2.00;;
54993;SDS011;40891;47.242;8.648;2023-08-31T11:22:40;5.00;;;2.25;;
54993;SDS011;40891;47.242;8.648;2023-08-31T11:25:08;4.28;;;2.20;;
54993;SDS011;40891;47.242;8.648;2023-08-31T11:27:34;3.25;;;1.80;;
54993;SDS011;40891;47.242;8.648;2023-08-31T11:29:59;3.58;;;1.80;;
54993;SDS011;40891;47.242;8.648;2023-08-31T11:32:24;2.83;;;1.63;;
54993;SDS011;40891;47.242;8.648;2023-08-31T11:34:50;4.90;;;2.15;;
54993;SDS011;40891;47.242;8.648;2023-08-31T11:37:15;3.55;;;2.30;;
54993;SDS011;40891;47.242;8.648;2023-08-31T11:39:41;4.88;;;2.35;;
54993;SDS011;40891;47.242;8.648;2023-08-31T11:42:08;6.95;;;2.08;;
54993;SDS011;40891;47.242;8.648;2023-08-31T11:44:33;3.40;;;1.77;;
54993;SDS011;40891;47.242;8.648;2023-08-31T11:46:59;2.75;;;2.13;;
54993;SDS011;40891;47.242;8.648;2023-08-31T11:49:26;3.67;;;2.25;;
54993;SDS011;40891;47.242;8.648;2023-08-31T11:51:52;3.67;;;2.17;;
54993;SDS011;40891;47.242;8.648;2023-08-31T11:54:18;3.22;;;1.95;;
54993;SDS011;40891;47.242;8.648;2023-08-31T11:56:46;4.93;;;1.90;;
54993;SDS011;40891;47.242;8.648;2023-08-31T11:59:16;3.20;;;2.00;;
54993;SDS011;40891;47.242;8.648;2023-08-31T12:01:42;5.30;;;2.20;;
54993;SDS011;40891;47.242;8.648;2023-08-31T12:04:21;4.38;;;2.25;;
54993;SDS011;40891;47.242;8.648;2023-08-31T12:06:58;4.00;;;2.25;;
54993;SDS011;40891;47.242;8.648;2023-08-31T12:09:27;6.53;;;3.53;;
54993;SDS011;40891;47.242;8.648;2023-08-31T12:11:53;4.22;;;2.00;;
54993;SDS011;40891;47.242;8.648;2023-08-31T12:14:22;6.47;;;2.20;;
54993;SDS011;40891;47.242;8.648;2023-08-31T12:16:49;4.22;;;2.33;;
54993;SDS011;40891;47.242;8.648;2023-08-31T12:19:15;3.90;;;2.38;;
54993;SDS011;40891;47.242;8.648;2023-08-31T12:21:44;6.57;;;2.55;;
54993;SDS011;40891;47.242;8.648;2023-08-31T12:24:11;5.85;;;3.53;;
54993;SDS011;40891;47.242;8.648;2023-08-31T12:26:37;4.63;;;1.80;;
54993;SDS011;40891;47.242;8.648;2023-08-31T12:29:02;2.55;;;1.85;;
54993;SDS011;40891;47.242;8.648;2023-08-31T12:31:31;4.50;;;1.70;;
54993;SDS011;40891;47.242;8.648;2023-08-31T12:33:57;6.47;;;1.70;;
54993;SDS011;40891;47.242;8.648;2023-08-31T12:36:22;2.20;;;1.80;;
54993;SDS011;40891;47.242;8.648;2023-08-31T12:38:47;3.42;;;1.90;;
54993;SDS011;40891;47.242;8.648;2023-08-31T12:41:13;5.10;;;1.70;;
54993;SDS011;40891;47.242;8.648;2023-08-31T12:43:38;5.32;;;1.88;;
54993;SDS011;40891;47.242;8.648;2023-08-31T12:46:03;4.78;;;1.95;;
54993;SDS011;40891;47.242;8.648;2023-08-31T12:48:34;4.45;;;2.10;;
54993;SDS011;40891;47.242;8.648;2023-08-31T12:50:59;3.13;;;1.92;;
54993;SDS011;40891;47.242;8.648;2023-08-31T12:53:24;6.75;;;2.25;;
54993;SDS011;40891;47.242;8.648;2023-08-31T12:55:50;4.13;;;1.70;;
54993;SDS011;40891;47.242;8.648;2023-08-31T12:58:15;4.45;;;2.42;;
54993;SDS011;40891;47.242;8.648;2023-08-31T13:00:41;6.05;;;2.28;;
54993;SDS011;40891;47.242;8.648;2023-08-31T13:03:08;5.57;;;1.80;;
54993;SDS011;40891;47.242;8.648;2023-08-31T13:05:33;4.88;;;2.00;;
54993;SDS011;40891;47.242;8.648;2023-08-31T13:07:59;3.60;;;1.92;;
54993;SDS011;40891;47.242;8.648;2023-08-31T13:10:24;5.43;;;2.35;;
54993;SDS011;40891;47.242;8.648;2023-08-31T13:12:50;4.30;;;1.70;;
54993;SDS011;40891;47.242;8.648;2023-08-31T13:15:15;3.78;;;2.20;;
54993;SDS011;40891;47.242;8.648;2023-08-31T13:17:40;4.45;;;2.10;;
54993;SDS011;40891;47.242;8.648;2023-08-31T13:20:06;4.90;;;2.22;;
54993;SDS011;40891;47.242;8.648;2023-08-31T13:22:33;5.65;;;1.90;;
54993;SDS011;40891;47.242;8.648;2023-08-31T13:24:58;3.92;;;2.10;;
54993;SDS011;40891;47.242;8.648;2023-08-31T13:27:24;2.97;;;1.88;;
54993;SDS011;40891;47.242;8.648;2023-08-31T13:29:49;3.33;;;2.08;;
54993;SDS011;40891;47.242;8.648;2023-08-31T13:32:15;3.53;;;2.20;;
54993;SDS011;40891;47.242;8.648;2023-08-31T13:34:41;5.07;;;1.92;;
54993;SDS011;40891;47.242;8.648;2023-08-31T13:37:06;2.83;;;1.90;;
54993;SDS011;40891;47.242;8.648;2023-08-31T13:39:33;4.55;;;1.77;;
54993;SDS011;40891;47.242;8.648;2023-08-31T13:42:00;3.72;;;2.03;;
54993;SDS011;40891;47.242;8.648;2023-08-31T13:44:28;3.55;;;2.25;;
54993;SDS011;40891;47.242;8.648;2023-08-31T13:46:54;7.50;;;2.42;;
54993;SDS011;40891;47.242;8.648;2023-08-31T13:49:19;8.27;;;2.22;;
54993;SDS011;40891;47.242;8.648;2023-08-31T13:51:44;6.70;;;2.22;;
54993;SDS011;40891;47.242;8.648;2023-08-31T13:54:10;8.20;;;2.10;;
54993;SDS011;40891;47.242;8.648;2023-08-31T13:56:36;9.27;;;3.40;;
54993;SDS011;40891;47.242;8.648;2023-08-31T13:59:02;8.30;;;3.20;;
54993;SDS011;40891;47.242;8.648;2023-08-31T14:01:27;8.40;;;2.00;;
54993;SDS011;40891;47.242;8.648;2023-08-31T14:03:52;7.07;;;2.22;;
54993;SDS011;40891;47.242;8.648;2023-08-31T14:06:18;7.07;;;1.90;;
54993;SDS011;40891;47.242;8.648;2023-08-31T14:08:44;4.60;;;2.08;;
54993;SDS011;40891;47.242;8.648;2023-08-31T14:11:09;5.07;;;2.25;;
54993;SDS011;40891;47.242;8.648;2023-08-31T14:13:34;3.83;;;2.33;;
54993;SDS011;40891;47.242;8.648;2023-08-31T14:16:00;4.70;;;2.20;;
54993;SDS011;40891;47.242;8.648;2023-08-31T14:18:29;3.45;;;2.10;;
54993;SDS011;40891;47.242;8.648;2023-08-31T14:20:55;5.28;;;2.08;;
54993;SDS011;40891;47.242;8.648;2023-08-31T14:23:21;7.13;;;2.15;;
54993;SDS011;40891;47.242;8.648;2023-08-31T14:25:46;3.45;;;2.20;;
54993;SDS011;40891;47.242;8.648;2023-08-31T14:28:11;5.65;;;2.30;;
54993;SDS011;40891;47.242;8.648;2023-08-31T14:30:37;5.15;;;1.90;;
54993;SDS011;40891;47.242;8.648;2023-08-31T14:33:02;4.65;;;2.00;;
54993;SDS011;40891;47.242;8.648;2023-08-31T14:35:28;5.07;;;1.80;;
54993;SDS011;40891;47.242;8.648;2023-08-31T14:37:54;3.15;;;2.13;;
54993;SDS011;40891;47.242;8.648;2023-08-31T14:40:19;3.78;;;2.30;;
54993;SDS011;40891;47.242;8.648;2023-08-31T14:42:44;3.90;;;2.13;;
54993;SDS011;40891;47.242;8.648;2023-08-31T14:45:09;3.58;;;2.10;;
54993;SDS011;40891;47.242;8.648;2023-08-31T14:47:35;6.22;;;2.50;;
54993;SDS011;40891;47.242;8.648;2023-08-31T14:50:00;6.30;;;2.10;;
54993;SDS011;40891;47.242;8.648;2023-08-31T14:52:25;5.28;;;2.28;;
54993;SDS011;40891;47.242;8.648;2023-08-31T14:54:51;4.38;;;2.25;;
54993;SDS011;40891;47.242;8.648;2023-08-31T14:57:16;3.42;;;1.92;;
54993;SDS011;40891;47.242;8.648;2023-08-31T14:59:42;3.95;;;2.50;;